sensor_id;sensor_type;location;lat;lon;timestamp;P1;durP1;ratioP1;P2;durP2;ratioP2
11504;SDS011;5809;53.262;10.408;2022-08-21T00:01:29;7.90;;;3.42;;
11504;SDS011;5809;53.262;10.408;2022-08-21T00:03:56;8.05;;;3.63;;
11504;SDS011;5809;53.262;10.408;2022-08-21T00:06:23;6.80;;;2.95;;
11504;SDS011;5809;53.262;10.408;2022-08-21T00:08:51;6.03;;;3.20;;
11504;SDS011;5809;53.262;10.408;2022-08-21T00:11:19;7.97;;;3.72;;
11504;SDS011;5809;53.262;10.408;2022-08-21T00:13:46;7.22;;;3.15;;
11504;SDS011;5809;53.262;10.408;2022-08-21T00:16:13;4.97;;;2.92;;
11504;SDS011;5809;53.262;10.408;2022-08-21T00:18:40;8.25;;;3.22;;
11504;SDS011;5809;53.262;10.408;2022-08-21T00:21:07;5.88;;;3.05;;
11504;SDS011;5809;53.262;10.408;2022-08-21T00:23:35;7.97;;;3.35;;
11504;SDS011;5809;53.262;10.408;2022-08-21T00:26:02;6.72;;;3.35;;
11504;SDS011;5809;53.262;10.408;2022-08-21T00:28:31;5.47;;;3.25;;
11504;SDS011;5809;53.262;10.408;2022-08-21T00:30:58;6.43;;;3.13;;
11504;SDS011;5809;53.262;10.408;2022-08-21T00:33:29;6.25;;;3.13;;
11504;SDS011;5809;53.262;10.408;2022-08-21T00:35:56;7.43;;;3.55;;
11504;SDS011;5809;53.262;10.408;2022-08-21T00:38:24;5.93;;;3.42;;
11504;SDS011;5809;53.262;10.408;2022-08-21T00:40:52;5.53;;;3.22;;
11504;SDS011;5809;53.262;10.408;2022-08-21T00:43:22;4.78;;;3.10;;
11504;SDS011;5809;53.262;10.408;2022-08-21T00:45:55;6.72;;;3.25;;
11504;SDS011;5809;53.262;10.408;2022-08-21T00:48:23;5.43;;;3.05;;
11504;SDS011;5809;53.262;10.408;2022-08-21T00:50:52;5.07;;;2.83;;
11504;SDS011;5809;53.262;10.408;2022-08-21T00:53:22;4.63;;;2.72;;
11504;SDS011;5809;53.262;10.408;2022-08-21T00:55:50;4.47;;;2.70;;
11504;SDS011;5809;53.262;10.408;2022-08-21T00:58:18;6.55;;;3.08;;
11504;SDS011;5809;53.262;10.408;2022-08-21T01:00:46;7.07;;;2.65;;
11504;SDS011;5809;53.262;10.408;2022-08-21T01:03:16;4.10;;;2.40;;
11504;SDS011;5809;53.262;10.408;2022-08-21T01:05:46;6.40;;;3.10;;
11504;SDS011;5809;53.262;10.408;2022-08-21T01:08:13;8.10;;;3.10;;
11504;SDS011;5809;53.262;10.408;2022-08-21T01:10:43;7.65;;;3.15;;
11504;SDS011;5809;53.262;10.408;2022-08-21T01:13:12;4.00;;;2.70;;
11504;SDS011;5809;53.262;10.408;2022-08-21T01:15:42;6.57;;;2.77;;
11504;SDS011;5809;53.262;10.408;2022-08-21T01:18:12;7.03;;;2.90;;
11504;SDS011;5809;53.262;10.408;2022-08-21T01:20:43;3.67;;;2.60;;
11504;SDS011;5809;53.262;10.408;2022-08-21T01:23:13;3.88;;;2.60;;
11504;SDS011;5809;53.262;10.408;2022-08-21T01:25:40;6.68;;;2.95;;
11504;SDS011;5809;53.262;10.408;2022-08-21T01:28:09;6.27;;;3.33;;
11504;SDS011;5809;53.262;10.408;2022-08-21T01:30:40;5.00;;;2.83;;
11504;SDS011;5809;53.262;10.408;2022-08-21T01:33:10;7.87;;;3.20;;
11504;SDS011;5809;53.262;10.408;2022-08-21T01:35:37;4.72;;;2.75;;
11504;SDS011;5809;53.262;10.408;2022-08-21T01:38:04;8.20;;;2.67;;
11504;SDS011;5809;53.262;10.408;2022-08-21T01:40:33;7.47;;;3.00;;
11504;SDS011;5809;53.262;10.408;2022-08-21T01:43:00;6.63;;;2.80;;
11504;SDS011;5809;53.262;10.408;2022-08-21T01:45:27;3.73;;;2.40;;
11504;SDS011;5809;53.262;10.408;2022-08-21T01:47:54;6.90;;;2.77;;
11504;SDS011;5809;53.262;10.408;2022-08-21T01:50:21;5.37;;;2.87;;
11504;SDS011;5809;53.262;10.408;2022-08-21T01:52:49;5.13;;;2.87;;
11504;SDS011;5809;53.262;10.408;2022-08-21T01:55:17;4.97;;;2.63;;
11504;SDS011;5809;53.262;10.408;2022-08-21T01:57:46;5.47;;;2.97;;
11504;SDS011;5809;53.262;10.408;2022-08-21T02:00:14;6.03;;;2.90;;
11504;SDS011;5809;53.262;10.408;2022-08-21T02:02:43;6.27;;;2.87;;
11504;SDS011;5809;53.262;10.408;2022-08-21T02:05:10;7.43;;;2.60;;
11504;SDS011;5809;53.262;10.408;2022-08-21T02:07:39;5.67;;;3.10;;
11504;SDS011;5809;53.262;10.408;2022-08-21T02:10:08;6.80;;;3.00;;
11504;SDS011;5809;53.262;10.408;2022-08-21T02:12:36;6.17;;;3.13;;
11504;SDS011;5809;53.262;10.408;2022-08-21T02:15:06;5.67;;;3.10;;
11504;SDS011;5809;53.262;10.408;2022-08-21T02:17:38;5.27;;;3.13;;
11504;SDS011;5809;53.262;10.408;2022-08-21T02:20:06;8.00;;;3.23;;
11504;SDS011;5809;53.262;10.408;2022-08-21T02:22:34;5.30;;;3.40;;
11504;SDS011;5809;53.262;10.408;2022-08-21T02:25:01;6.40;;;3.00;;
11504;SDS011;5809;53.262;10.408;2022-08-21T02:27:29;4.07;;;2.80;;
11504;SDS011;5809;53.262;10.408;2022-08-21T02:30:03;4.90;;;3.03;;
11504;SDS011;5809;53.262;10.408;2022-08-21T02:32:32;6.20;;;2.83;;
11504;SDS011;5809;53.262;10.408;2022-08-21T02:34:59;7.73;;;2.97;;
11504;SDS011;5809;53.262;10.408;2022-08-21T02:37:26;4.10;;;2.77;;
11504;SDS011;5809;53.262;10.408;2022-08-21T02:39:53;4.20;;;3.00;;
11504;SDS011;5809;53.262;10.408;2022-08-21T02:42:20;6.00;;;3.07;;
11504;SDS011;5809;53.262;10.408;2022-08-21T02:44:47;4.50;;;2.87;;
11504;SDS011;5809;53.262;10.408;2022-08-21T02:47:15;4.70;;;3.17;;
11504;SDS011;5809;53.262;10.408;2022-08-21T02:49:42;3.27;;;2.73;;
11504;SDS011;5809;53.262;10.408;2022-08-21T02:52:09;3.83;;;3.00;;
11504;SDS011;5809;53.262;10.408;2022-08-21T02:54:36;4.97;;;3.07;;
11504;SDS011;5809;53.262;10.408;2022-08-21T02:57:03;7.13;;;3.17;;
11504;SDS011;5809;53.262;10.408;2022-08-21T02:59:31;6.73;;;3.47;;
11504;SDS011;5809;53.262;10.408;2022-08-21T03:01:58;6.63;;;3.47;;
11504;SDS011;5809;53.262;10.408;2022-08-21T03:04:26;4.47;;;3.10;;
11504;SDS011;5809;53.262;10.408;2022-08-21T03:06:53;6.87;;;3.23;;
11504;SDS011;5809;53.262;10.408;2022-08-21T03:09:20;6.20;;;3.00;;
11504;SDS011;5809;53.262;10.408;2022-08-21T03:11:47;4.53;;;3.20;;
11504;SDS011;5809;53.262;10.408;2022-08-21T03:14:14;5.37;;;3.40;;
11504;SDS011;5809;53.262;10.408;2022-08-21T03:16:41;5.07;;;3.13;;
11504;SDS011;5809;53.262;10.408;2022-08-21T03:19:08;5.60;;;3.17;;
11504;SDS011;5809;53.262;10.408;2022-08-21T03:21:38;7.53;;;3.80;;
11504;SDS011;5809;53.262;10.408;2022-08-21T03:24:05;4.50;;;3.37;;
11504;SDS011;5809;53.262;10.408;2022-08-21T03:26:32;5.30;;;3.13;;
11504;SDS011;5809;53.262;10.408;2022-08-21T03:29:00;5.10;;;3.27;;
11504;SDS011;5809;53.262;10.408;2022-08-21T03:31:27;6.70;;;3.63;;
11504;SDS011;5809;53.262;10.408;2022-08-21T03:33:56;6.35;;;3.25;;
11504;SDS011;5809;53.262;10.408;2022-08-21T03:36:23;4.93;;;3.40;;
11504;SDS011;5809;53.262;10.408;2022-08-21T03:38:52;6.33;;;3.17;;
11504;SDS011;5809;53.262;10.408;2022-08-21T03:41:19;6.40;;;3.33;;
11504;SDS011;5809;53.262;10.408;2022-08-21T03:43:46;5.57;;;3.00;;
11504;SDS011;5809;53.262;10.408;2022-08-21T03:46:13;4.75;;;3.00;;
11504;SDS011;5809;53.262;10.408;2022-08-21T03:48:40;4.23;;;2.83;;
11504;SDS011;5809;53.262;10.408;2022-08-21T03:51:07;4.97;;;3.13;;
11504;SDS011;5809;53.262;10.408;2022-08-21T03:53:35;6.23;;;3.30;;
11504;SDS011;5809;53.262;10.408;2022-08-21T03:56:04;6.50;;;3.17;;
11504;SDS011;5809;53.262;10.408;2022-08-21T03:58:31;5.30;;;3.03;;
11504;SDS011;5809;53.262;10.408;2022-08-21T04:00:59;4.97;;;3.60;;
11504;SDS011;5809;53.262;10.408;2022-08-21T04:03:27;5.17;;;3.70;;
11504;SDS011;5809;53.262;10.408;2022-08-21T04:05:54;6.13;;;3.40;;
11504;SDS011;5809;53.262;10.408;2022-08-21T04:08:22;8.07;;;3.90;;
11504;SDS011;5809;53.262;10.408;2022-08-21T04:10:49;6.13;;;3.43;;
11504;SDS011;5809;53.262;10.408;2022-08-21T04:13:21;4.70;;;3.07;;
11504;SDS011;5809;53.262;10.408;2022-08-21T04:15:48;6.37;;;3.00;;
11504;SDS011;5809;53.262;10.408;2022-08-21T04:18:15;5.10;;;3.40;;
11504;SDS011;5809;53.262;10.408;2022-08-21T04:20:43;5.57;;;3.00;;
11504;SDS011;5809;53.262;10.408;2022-08-21T04:23:12;4.73;;;3.07;;
11504;SDS011;5809;53.262;10.408;2022-08-21T04:25:39;6.07;;;3.07;;
11504;SDS011;5809;53.262;10.408;2022-08-21T04:28:06;6.63;;;3.30;;
11504;SDS011;5809;53.262;10.408;2022-08-21T04:30:34;7.00;;;3.40;;
11504;SDS011;5809;53.262;10.408;2022-08-21T04:33:01;5.23;;;3.53;;
11504;SDS011;5809;53.262;10.408;2022-08-21T04:35:28;6.37;;;3.20;;
11504;SDS011;5809;53.262;10.408;2022-08-21T04:37:56;7.33;;;3.73;;
11504;SDS011;5809;53.262;10.408;2022-08-21T04:40:24;6.20;;;3.17;;
11504;SDS011;5809;53.262;10.408;2022-08-21T04:42:53;7.03;;;3.60;;
11504;SDS011;5809;53.262;10.408;2022-08-21T04:45:25;6.57;;;3.20;;
11504;SDS011;5809;53.262;10.408;2022-08-21T04:47:55;5.83;;;3.10;;
11504;SDS011;5809;53.262;10.408;2022-08-21T04:50:24;3.60;;;3.00;;
11504;SDS011;5809;53.262;10.408;2022-08-21T04:52:55;5.37;;;3.03;;
11504;SDS011;5809;53.262;10.408;2022-08-21T04:55:22;5.07;;;3.20;;
11504;SDS011;5809;53.262;10.408;2022-08-21T04:57:51;4.73;;;3.00;;
11504;SDS011;5809;53.262;10.408;2022-08-21T05:00:19;5.50;;;2.87;;
11504;SDS011;5809;53.262;10.408;2022-08-21T05:02:49;7.80;;;2.90;;
11504;SDS011;5809;53.262;10.408;2022-08-21T05:05:23;5.57;;;3.33;;
11504;SDS011;5809;53.262;10.408;2022-08-21T05:07:50;5.87;;;3.10;;
11504;SDS011;5809;53.262;10.408;2022-08-21T05:10:19;4.07;;;2.87;;
11504;SDS011;5809;53.262;10.408;2022-08-21T05:12:46;5.37;;;2.83;;
11504;SDS011;5809;53.262;10.408;2022-08-21T05:15:13;5.43;;;3.00;;
11504;SDS011;5809;53.262;10.408;2022-08-21T05:17:42;4.60;;;3.10;;
11504;SDS011;5809;53.262;10.408;2022-08-21T05:20:09;3.23;;;2.77;;
11504;SDS011;5809;53.262;10.408;2022-08-21T05:22:39;6.57;;;2.90;;
11504;SDS011;5809;53.262;10.408;2022-08-21T05:25:07;5.10;;;2.78;;
11504;SDS011;5809;53.262;10.408;2022-08-21T05:27:35;5.20;;;3.00;;
11504;SDS011;5809;53.262;10.408;2022-08-21T05:30:04;3.05;;;2.33;;
11504;SDS011;5809;53.262;10.408;2022-08-21T05:32:33;2.90;;;2.30;;
11504;SDS011;5809;53.262;10.408;2022-08-21T05:35:00;4.72;;;2.70;;
11504;SDS011;5809;53.262;10.408;2022-08-21T05:37:27;3.55;;;2.88;;
11504;SDS011;5809;53.262;10.408;2022-08-21T05:39:56;3.97;;;2.50;;
11504;SDS011;5809;53.262;10.408;2022-08-21T05:42:23;3.83;;;2.25;;
11504;SDS011;5809;53.262;10.408;2022-08-21T05:44:49;5.07;;;2.35;;
11504;SDS011;5809;53.262;10.408;2022-08-21T05:47:17;4.10;;;2.40;;
11504;SDS011;5809;53.262;10.408;2022-08-21T05:49:44;4.43;;;2.65;;
11504;SDS011;5809;53.262;10.408;2022-08-21T05:52:11;7.10;;;2.38;;
11504;SDS011;5809;53.262;10.408;2022-08-21T05:54:38;4.13;;;2.30;;
11504;SDS011;5809;53.262;10.408;2022-08-21T05:57:06;7.07;;;2.70;;
11504;SDS011;5809;53.262;10.408;2022-08-21T05:59:34;5.85;;;2.72;;
11504;SDS011;5809;53.262;10.408;2022-08-21T06:02:01;5.60;;;2.65;;
11504;SDS011;5809;53.262;10.408;2022-08-21T06:04:28;4.80;;;2.60;;
11504;SDS011;5809;53.262;10.408;2022-08-21T06:06:55;4.68;;;2.70;;
11504;SDS011;5809;53.262;10.408;2022-08-21T06:09:22;5.03;;;2.60;;
11504;SDS011;5809;53.262;10.408;2022-08-21T06:11:49;3.92;;;2.78;;
11504;SDS011;5809;53.262;10.408;2022-08-21T06:14:17;6.38;;;2.78;;
11504;SDS011;5809;53.262;10.408;2022-08-21T06:16:44;5.50;;;2.55;;
11504;SDS011;5809;53.262;10.408;2022-08-21T06:19:11;5.60;;;2.75;;
11504;SDS011;5809;53.262;10.408;2022-08-21T06:21:38;5.82;;;2.40;;
11504;SDS011;5809;53.262;10.408;2022-08-21T06:24:05;4.30;;;2.30;;
11504;SDS011;5809;53.262;10.408;2022-08-21T06:26:33;7.63;;;2.80;;
11504;SDS011;5809;53.262;10.408;2022-08-21T06:29:00;3.67;;;2.00;;
11504;SDS011;5809;53.262;10.408;2022-08-21T06:31:28;4.72;;;2.45;;
11504;SDS011;5809;53.262;10.408;2022-08-21T06:33:55;3.20;;;2.17;;
11504;SDS011;5809;53.262;10.408;2022-08-21T06:36:22;5.40;;;2.50;;
11504;SDS011;5809;53.262;10.408;2022-08-21T06:38:50;4.78;;;2.25;;
11504;SDS011;5809;53.262;10.408;2022-08-21T06:41:17;6.18;;;2.40;;
11504;SDS011;5809;53.262;10.408;2022-08-21T06:43:44;5.05;;;2.17;;
11504;SDS011;5809;53.262;10.408;2022-08-21T06:46:11;4.22;;;2.20;;
11504;SDS011;5809;53.262;10.408;2022-08-21T06:48:40;6.40;;;2.50;;
11504;SDS011;5809;53.262;10.408;2022-08-21T06:51:07;6.93;;;2.30;;
11504;SDS011;5809;53.262;10.408;2022-08-21T06:53:34;3.83;;;2.30;;
11504;SDS011;5809;53.262;10.408;2022-08-21T06:56:01;4.70;;;2.40;;
11504;SDS011;5809;53.262;10.408;2022-08-21T06:58:29;5.15;;;2.15;;
11504;SDS011;5809;53.262;10.408;2022-08-21T07:00:56;5.47;;;2.83;;
11504;SDS011;5809;53.262;10.408;2022-08-21T07:03:24;3.80;;;2.25;;
11504;SDS011;5809;53.262;10.408;2022-08-21T07:05:55;4.53;;;1.65;;
11504;SDS011;5809;53.262;10.408;2022-08-21T07:08:23;4.85;;;2.10;;
11504;SDS011;5809;53.262;10.408;2022-08-21T07:10:51;4.50;;;2.10;;
11504;SDS011;5809;53.262;10.408;2022-08-21T07:13:20;4.97;;;2.15;;
11504;SDS011;5809;53.262;10.408;2022-08-21T07:15:47;3.63;;;1.90;;
11504;SDS011;5809;53.262;10.408;2022-08-21T07:18:14;3.67;;;1.77;;
11504;SDS011;5809;53.262;10.408;2022-08-21T07:20:41;3.65;;;1.70;;
11504;SDS011;5809;53.262;10.408;2022-08-21T07:23:10;3.05;;;1.70;;
11504;SDS011;5809;53.262;10.408;2022-08-21T07:25:41;4.20;;;1.70;;
11504;SDS011;5809;53.262;10.408;2022-08-21T07:28:08;4.00;;;1.80;;
11504;SDS011;5809;53.262;10.408;2022-08-21T07:30:35;3.05;;;1.60;;
11504;SDS011;5809;53.262;10.408;2022-08-21T07:33:02;4.50;;;1.70;;
11504;SDS011;5809;53.262;10.408;2022-08-21T07:35:29;4.75;;;1.85;;
11504;SDS011;5809;53.262;10.408;2022-08-21T07:37:58;5.97;;;1.70;;
11504;SDS011;5809;53.262;10.408;2022-08-21T07:40:26;5.40;;;1.60;;
11504;SDS011;5809;53.262;10.408;2022-08-21T07:42:53;3.92;;;1.77;;
11504;SDS011;5809;53.262;10.408;2022-08-21T07:45:20;4.60;;;1.73;;
11504;SDS011;5809;53.262;10.408;2022-08-21T07:47:49;3.13;;;1.77;;
11504;SDS011;5809;53.262;10.408;2022-08-21T07:50:17;3.28;;;1.70;;
11504;SDS011;5809;53.262;10.408;2022-08-21T07:52:45;4.38;;;1.80;;
11504;SDS011;5809;53.262;10.408;2022-08-21T07:55:16;2.83;;;1.60;;
11504;SDS011;5809;53.262;10.408;2022-08-21T07:57:46;4.28;;;1.80;;
11504;SDS011;5809;53.262;10.408;2022-08-21T08:00:15;2.20;;;1.52;;
11504;SDS011;5809;53.262;10.408;2022-08-21T08:02:45;3.53;;;1.80;;
11504;SDS011;5809;53.262;10.408;2022-08-21T08:05:14;3.25;;;1.60;;
11504;SDS011;5809;53.262;10.408;2022-08-21T08:07:42;4.18;;;1.95;;
11504;SDS011;5809;53.262;10.408;2022-08-21T08:10:09;2.65;;;1.75;;
11504;SDS011;5809;53.262;10.408;2022-08-21T08:12:37;3.33;;;1.70;;
11504;SDS011;5809;53.262;10.408;2022-08-21T08:15:08;2.65;;;1.63;;
11504;SDS011;5809;53.262;10.408;2022-08-21T08:17:36;7.25;;;2.08;;
11504;SDS011;5809;53.262;10.408;2022-08-21T08:20:04;3.38;;;2.13;;
11504;SDS011;5809;53.262;10.408;2022-08-21T08:22:32;4.03;;;2.05;;
11504;SDS011;5809;53.262;10.408;2022-08-21T08:25:01;3.08;;;1.95;;
11504;SDS011;5809;53.262;10.408;2022-08-21T08:27:29;4.90;;;2.17;;
11504;SDS011;5809;53.262;10.408;2022-08-21T08:29:56;4.32;;;2.45;;
11504;SDS011;5809;53.262;10.408;2022-08-21T08:32:24;4.50;;;2.40;;
11504;SDS011;5809;53.262;10.408;2022-08-21T08:34:51;5.10;;;2.45;;
11504;SDS011;5809;53.262;10.408;2022-08-21T08:37:18;6.30;;;2.30;;
11504;SDS011;5809;53.262;10.408;2022-08-21T08:39:46;5.05;;;2.50;;
11504;SDS011;5809;53.262;10.408;2022-08-21T08:42:15;2.90;;;2.30;;
11504;SDS011;5809;53.262;10.408;2022-08-21T08:44:46;6.22;;;2.72;;
11504;SDS011;5809;53.262;10.408;2022-08-21T08:47:15;7.78;;;2.20;;
11504;SDS011;5809;53.262;10.408;2022-08-21T08:49:47;6.65;;;2.60;;
11504;SDS011;5809;53.262;10.408;2022-08-21T08:52:22;6.32;;;2.47;;
11504;SDS011;5809;53.262;10.408;2022-08-21T08:54:55;4.55;;;1.95;;
11504;SDS011;5809;53.262;10.408;2022-08-21T08:57:27;7.03;;;2.10;;
11504;SDS011;5809;53.262;10.408;2022-08-21T08:59:56;4.47;;;2.33;;
11504;SDS011;5809;53.262;10.408;2022-08-21T09:02:25;6.30;;;2.00;;
11504;SDS011;5809;53.262;10.408;2022-08-21T09:04:55;3.78;;;2.03;;
11504;SDS011;5809;53.262;10.408;2022-08-21T09:07:27;3.25;;;1.83;;
11504;SDS011;5809;53.262;10.408;2022-08-21T09:10:05;6.60;;;1.98;;
11504;SDS011;5809;53.262;10.408;2022-08-21T09:12:39;6.05;;;2.10;;
11504;SDS011;5809;53.262;10.408;2022-08-21T09:15:19;3.83;;;1.98;;
11504;SDS011;5809;53.262;10.408;2022-08-21T09:20:56;5.63;;;2.05;;
11504;SDS011;5809;53.262;10.408;2022-08-21T09:23:36;4.10;;;1.63;;
11504;SDS011;5809;53.262;10.408;2022-08-21T09:26:13;7.35;;;2.13;;
11504;SDS011;5809;53.262;10.408;2022-08-21T09:28:42;5.72;;;2.25;;
11504;SDS011;5809;53.262;10.408;2022-08-21T09:31:11;5.75;;;2.03;;
11504;SDS011;5809;53.262;10.408;2022-08-21T09:33:47;4.50;;;1.85;;
11504;SDS011;5809;53.262;10.408;2022-08-21T09:36:22;3.40;;;1.75;;
11504;SDS011;5809;53.262;10.408;2022-08-21T09:38:54;3.00;;;1.58;;
11504;SDS011;5809;53.262;10.408;2022-08-21T09:41:25;7.22;;;2.15;;
11504;SDS011;5809;53.262;10.408;2022-08-21T09:43:54;5.25;;;2.30;;
11504;SDS011;5809;53.262;10.408;2022-08-21T09:46:21;4.38;;;2.00;;
11504;SDS011;5809;53.262;10.408;2022-08-21T09:48:50;3.50;;;1.80;;
11504;SDS011;5809;53.262;10.408;2022-08-21T09:51:19;7.63;;;2.22;;
11504;SDS011;5809;53.262;10.408;2022-08-21T09:53:49;5.95;;;2.00;;
11504;SDS011;5809;53.262;10.408;2022-08-21T09:56:31;6.22;;;2.20;;
11504;SDS011;5809;53.262;10.408;2022-08-21T09:59:19;6.78;;;2.00;;
11504;SDS011;5809;53.262;10.408;2022-08-21T10:01:56;5.28;;;2.20;;
11504;SDS011;5809;53.262;10.408;2022-08-21T10:04:26;5.80;;;1.95;;
11504;SDS011;5809;53.262;10.408;2022-08-21T10:07:04;4.65;;;2.05;;
11504;SDS011;5809;53.262;10.408;2022-08-21T10:09:34;5.40;;;2.25;;
11504;SDS011;5809;53.262;10.408;2022-08-21T10:12:07;6.25;;;2.28;;
11504;SDS011;5809;53.262;10.408;2022-08-21T10:14:42;5.63;;;2.15;;
11504;SDS011;5809;53.262;10.408;2022-08-21T10:17:17;7.85;;;2.60;;
11504;SDS011;5809;53.262;10.408;2022-08-21T10:19:54;3.92;;;1.90;;
11504;SDS011;5809;53.262;10.408;2022-08-21T10:22:30;6.38;;;2.28;;
11504;SDS011;5809;53.262;10.408;2022-08-21T10:25:08;5.65;;;2.00;;
11504;SDS011;5809;53.262;10.408;2022-08-21T10:27:46;8.93;;;2.42;;
11504;SDS011;5809;53.262;10.408;2022-08-21T10:30:19;5.05;;;2.63;;
11504;SDS011;5809;53.262;10.408;2022-08-21T10:32:59;6.88;;;2.30;;
11504;SDS011;5809;53.262;10.408;2022-08-21T10:35:43;4.50;;;2.28;;
11504;SDS011;5809;53.262;10.408;2022-08-21T10:41:17;4.53;;;2.30;;
11504;SDS011;5809;53.262;10.408;2022-08-21T10:43:52;5.55;;;2.50;;
11504;SDS011;5809;53.262;10.408;2022-08-21T10:46:28;4.85;;;2.33;;
11504;SDS011;5809;53.262;10.408;2022-08-21T10:49:06;6.18;;;2.30;;
11504;SDS011;5809;53.262;10.408;2022-08-21T10:51:51;6.13;;;2.33;;
11504;SDS011;5809;53.262;10.408;2022-08-21T10:54:25;6.10;;;2.20;;
11504;SDS011;5809;53.262;10.408;2022-08-21T10:57:01;4.90;;;2.35;;
11504;SDS011;5809;53.262;10.408;2022-08-21T10:59:33;4.43;;;2.13;;
11504;SDS011;5809;53.262;10.408;2022-08-21T11:02:09;5.75;;;2.40;;
11504;SDS011;5809;53.262;10.408;2022-08-21T11:04:47;5.88;;;2.20;;
11504;SDS011;5809;53.262;10.408;2022-08-21T11:07:19;4.70;;;2.63;;
11504;SDS011;5809;53.262;10.408;2022-08-21T11:09:52;7.55;;;2.60;;
11504;SDS011;5809;53.262;10.408;2022-08-21T11:12:25;5.18;;;2.30;;
11504;SDS011;5809;53.262;10.408;2022-08-21T11:14:58;8.25;;;2.40;;
11504;SDS011;5809;53.262;10.408;2022-08-21T11:17:31;8.10;;;2.20;;
11504;SDS011;5809;53.262;10.408;2022-08-21T11:20:04;8.35;;;2.60;;
11504;SDS011;5809;53.262;10.408;2022-08-21T11:22:38;4.65;;;2.20;;
11504;SDS011;5809;53.262;10.408;2022-08-21T11:25:13;5.20;;;2.10;;
11504;SDS011;5809;53.262;10.408;2022-08-21T11:27:49;4.40;;;2.28;;
11504;SDS011;5809;53.262;10.408;2022-08-21T11:30:19;4.50;;;1.90;;
11504;SDS011;5809;53.262;10.408;2022-08-21T11:32:57;3.97;;;1.88;;
11504;SDS011;5809;53.262;10.408;2022-08-21T11:35:34;4.18;;;2.25;;
11504;SDS011;5809;53.262;10.408;2022-08-21T11:38:09;4.25;;;2.25;;
11504;SDS011;5809;53.262;10.408;2022-08-21T11:40:50;5.13;;;1.73;;
11504;SDS011;5809;53.262;10.408;2022-08-21T11:43:29;3.83;;;1.85;;
11504;SDS011;5809;53.262;10.408;2022-08-21T11:46:04;4.80;;;1.77;;
11504;SDS011;5809;53.262;10.408;2022-08-21T11:48:40;2.47;;;1.63;;
11504;SDS011;5809;53.262;10.408;2022-08-21T11:51:13;8.75;;;1.70;;
11504;SDS011;5809;53.262;10.408;2022-08-21T11:53:46;2.92;;;1.73;;
11504;SDS011;5809;53.262;10.408;2022-08-21T11:56:20;3.58;;;1.80;;
11504;SDS011;5809;53.262;10.408;2022-08-21T11:58:52;3.90;;;1.83;;
11504;SDS011;5809;53.262;10.408;2022-08-21T12:01:25;3.85;;;1.80;;
11504;SDS011;5809;53.262;10.408;2022-08-21T12:03:57;2.42;;;1.50;;
11504;SDS011;5809;53.262;10.408;2022-08-21T12:06:29;4.25;;;1.83;;
11504;SDS011;5809;53.262;10.408;2022-08-21T12:08:58;4.70;;;1.98;;
11504;SDS011;5809;53.262;10.408;2022-08-21T12:11:26;3.33;;;1.60;;
11504;SDS011;5809;53.262;10.408;2022-08-21T12:13:55;2.85;;;1.50;;
11504;SDS011;5809;53.262;10.408;2022-08-21T12:16:31;1.75;;;1.50;;
11504;SDS011;5809;53.262;10.408;2022-08-21T12:19:04;4.00;;;1.65;;
11504;SDS011;5809;53.262;10.408;2022-08-21T12:21:32;4.03;;;1.48;;
11504;SDS011;5809;53.262;10.408;2022-08-21T12:24:01;3.20;;;1.70;;
11504;SDS011;5809;53.262;10.408;2022-08-21T12:26:32;2.88;;;1.80;;
11504;SDS011;5809;53.262;10.408;2022-08-21T12:29:16;4.03;;;1.52;;
11504;SDS011;5809;53.262;10.408;2022-08-21T12:31:59;4.65;;;1.60;;
11504;SDS011;5809;53.262;10.408;2022-08-21T12:34:32;1.65;;;1.30;;
11504;SDS011;5809;53.262;10.408;2022-08-21T12:37:03;3.33;;;1.70;;
11504;SDS011;5809;53.262;10.408;2022-08-21T12:39:33;2.90;;;1.63;;
11504;SDS011;5809;53.262;10.408;2022-08-21T12:42:05;2.45;;;1.55;;
11504;SDS011;5809;53.262;10.408;2022-08-21T12:44:42;2.13;;;1.50;;
11504;SDS011;5809;53.262;10.408;2022-08-21T12:47:14;2.13;;;1.50;;
11504;SDS011;5809;53.262;10.408;2022-08-21T12:49:45;3.15;;;1.73;;
11504;SDS011;5809;53.262;10.408;2022-08-21T12:52:22;3.75;;;1.70;;
11504;SDS011;5809;53.262;10.408;2022-08-21T12:54:54;2.60;;;1.60;;
11504;SDS011;5809;53.262;10.408;2022-08-21T12:57:21;2.75;;;1.67;;
11504;SDS011;5809;53.262;10.408;2022-08-21T12:59:53;4.30;;;1.70;;
11504;SDS011;5809;53.262;10.408;2022-08-21T13:02:22;4.18;;;1.75;;
11504;SDS011;5809;53.262;10.408;2022-08-21T13:04:50;3.28;;;1.52;;
11504;SDS011;5809;53.262;10.408;2022-08-21T13:07:22;2.58;;;1.70;;
11504;SDS011;5809;53.262;10.408;2022-08-21T13:09:53;3.38;;;1.42;;
11504;SDS011;5809;53.262;10.408;2022-08-21T13:12:23;3.33;;;1.65;;
11504;SDS011;5809;53.262;10.408;2022-08-21T13:14:55;4.15;;;1.55;;
11504;SDS011;5809;53.262;10.408;2022-08-21T13:17:23;3.85;;;1.50;;
11504;SDS011;5809;53.262;10.408;2022-08-21T13:19:53;1.90;;;1.52;;
11504;SDS011;5809;53.262;10.408;2022-08-21T13:22:21;4.63;;;1.80;;
11504;SDS011;5809;53.262;10.408;2022-08-21T13:24:48;3.38;;;1.45;;
11504;SDS011;5809;53.262;10.408;2022-08-21T13:27:19;4.95;;;1.70;;
11504;SDS011;5809;53.262;10.408;2022-08-21T13:29:48;4.40;;;1.30;;
11504;SDS011;5809;53.262;10.408;2022-08-21T13:32:33;2.20;;;1.60;;
11504;SDS011;5809;53.262;10.408;2022-08-21T13:35:10;2.75;;;1.50;;
11504;SDS011;5809;53.262;10.408;2022-08-21T13:37:41;3.08;;;1.35;;
11504;SDS011;5809;53.262;10.408;2022-08-21T13:40:10;2.65;;;1.40;;
11504;SDS011;5809;53.262;10.408;2022-08-21T13:42:41;3.83;;;1.48;;
11504;SDS011;5809;53.262;10.408;2022-08-21T13:45:14;2.40;;;1.48;;
11504;SDS011;5809;53.262;10.408;2022-08-21T13:47:45;2.75;;;1.50;;
11504;SDS011;5809;53.262;10.408;2022-08-21T13:50:13;2.63;;;1.63;;
11504;SDS011;5809;53.262;10.408;2022-08-21T13:52:53;4.35;;;1.50;;
11504;SDS011;5809;53.262;10.408;2022-08-21T13:55:23;4.47;;;1.60;;
11504;SDS011;5809;53.262;10.408;2022-08-21T13:57:58;3.42;;;1.65;;
11504;SDS011;5809;53.262;10.408;2022-08-21T14:00:28;2.63;;;1.45;;
11504;SDS011;5809;53.262;10.408;2022-08-21T14:03:00;3.30;;;1.67;;
11504;SDS011;5809;53.262;10.408;2022-08-21T14:05:32;4.60;;;1.88;;
11504;SDS011;5809;53.262;10.408;2022-08-21T14:08:02;4.00;;;1.58;;
11504;SDS011;5809;53.262;10.408;2022-08-21T14:10:34;4.93;;;1.80;;
11504;SDS011;5809;53.262;10.408;2022-08-21T14:13:04;3.53;;;1.65;;
11504;SDS011;5809;53.262;10.408;2022-08-21T14:15:34;4.18;;;2.03;;
11504;SDS011;5809;53.262;10.408;2022-08-21T14:18:08;3.60;;;1.85;;
11504;SDS011;5809;53.262;10.408;2022-08-21T14:20:40;3.92;;;1.88;;
11504;SDS011;5809;53.262;10.408;2022-08-21T14:23:07;4.55;;;2.33;;
11504;SDS011;5809;53.262;10.408;2022-08-21T14:25:38;3.55;;;1.50;;
11504;SDS011;5809;53.262;10.408;2022-08-21T14:28:19;3.33;;;1.92;;
11504;SDS011;5809;53.262;10.408;2022-08-21T14:30:52;4.15;;;1.58;;
11504;SDS011;5809;53.262;10.408;2022-08-21T14:33:22;3.67;;;1.90;;
11504;SDS011;5809;53.262;10.408;2022-08-21T14:35:52;4.05;;;1.95;;
11504;SDS011;5809;53.262;10.408;2022-08-21T14:38:20;3.60;;;2.10;;
11504;SDS011;5809;53.262;10.408;2022-08-21T14:40:50;3.50;;;1.63;;
11504;SDS011;5809;53.262;10.408;2022-08-21T14:43:20;3.75;;;1.90;;
11504;SDS011;5809;53.262;10.408;2022-08-21T14:45:47;4.82;;;1.90;;
11504;SDS011;5809;53.262;10.408;2022-08-21T14:48:16;4.05;;;1.70;;
11504;SDS011;5809;53.262;10.408;2022-08-21T14:50:43;4.40;;;1.73;;
11504;SDS011;5809;53.262;10.408;2022-08-21T14:53:10;2.90;;;1.45;;
11504;SDS011;5809;53.262;10.408;2022-08-21T14:55:37;2.25;;;1.67;;
11504;SDS011;5809;53.262;10.408;2022-08-21T14:58:19;2.80;;;1.70;;
11504;SDS011;5809;53.262;10.408;2022-08-21T15:00:48;5.47;;;1.58;;
11504;SDS011;5809;53.262;10.408;2022-08-21T15:03:16;3.65;;;1.50;;
11504;SDS011;5809;53.262;10.408;2022-08-21T15:05:44;2.78;;;1.70;;
11504;SDS011;5809;53.262;10.408;2022-08-21T15:08:11;3.50;;;1.42;;
11504;SDS011;5809;53.262;10.408;2022-08-21T15:10:40;3.33;;;1.48;;